createdAt,value
2023-01-20T00:00:05.020Z,58.53
2023-01-20T00:02:17.119Z,58.63
2023-01-20T00:04:22.179Z,58.72
2023-01-20T00:06:25.714Z,58.59
2023-01-20T00:08:27.852Z,58.45
2023-01-20T00:10:30.050Z,58.74
2023-01-20T00:12:32.345Z,58.21
2023-01-20T00:14:34.385Z,58.56
2023-01-20T00:16:36.510Z,58.67
2023-01-20T00:18:41.564Z,58.86
2023-01-20T00:20:43.915Z,58.86
2023-01-20T00:22:46.108Z,58.76
2023-01-20T00:24:48.451Z,59.05
2023-01-20T00:26:50.548Z,59.27
2023-01-20T00:28:57.890Z,58.80
2023-01-20T00:31:13.530Z,58.70
2023-01-20T00:33:15.753Z,58.58
2023-01-20T00:35:17.745Z,58.80
2023-01-20T00:37:20.211Z,58.69
2023-01-20T00:39:22.506Z,58.33
2023-01-20T00:41:24.964Z,58.82
2023-01-20T00:43:27.192Z,58.91
2023-01-20T00:45:29.332Z,58.57
2023-01-20T00:47:31.245Z,58.94
2023-01-20T00:49:33.220Z,58.49
2023-01-20T00:51:35.271Z,59.12
2023-01-20T00:53:39.205Z,59.00
2023-01-20T00:55:41.266Z,59.08
2023-01-20T00:57:43.393Z,59.30
2023-01-20T00:59:45.402Z,58.98
2023-01-20T01:01:47.585Z,59.16
2023-01-20T01:03:49.978Z,59.19
2023-01-20T01:05:52.103Z,59.01
2023-01-20T01:07:54.153Z,59.00
2023-01-20T01:09:56.134Z,59.24
2023-01-20T01:11:58.410Z,58.93
2023-01-20T01:14:00.668Z,58.98
2023-01-20T01:16:02.871Z,59.06
2023-01-20T01:18:05.229Z,59.23
2023-01-20T01:20:07.654Z,59.06
2023-01-20T01:22:09.915Z,58.90
2023-01-20T01:24:12.056Z,59.04
2023-01-20T01:26:14.429Z,58.88
2023-01-20T01:28:16.497Z,58.61
2023-01-20T01:30:18.844Z,58.76
2023-01-20T01:32:21.093Z,58.55
2023-01-20T01:34:23.387Z,58.89
2023-01-20T01:37:15.531Z,58.91
2023-01-20T01:39:20.218Z,58.96
2023-01-20T01:41:22.301Z,59.12
2023-01-20T01:43:27.611Z,59.19
2023-01-20T01:45:33.461Z,59.22
2023-01-20T01:47:36.335Z,59.31
2023-01-20T01:49:38.274Z,59.35
2023-01-20T01:51:49.959Z,59.50
2023-01-20T01:54:04.402Z,59.42
2023-01-20T01:56:07.049Z,59.45
2023-01-20T01:58:13.748Z,59.61
2023-01-20T02:00:16.132Z,59.36
2023-01-20T02:02:22.716Z,59.35
2023-01-20T02:04:27.803Z,59.47
2023-01-20T02:06:34.497Z,59.63
2023-01-20T02:08:40.288Z,59.69
2023-01-20T02:10:42.365Z,59.40
2023-01-20T02:12:49.604Z,59.56
2023-01-20T02:14:59.429Z,59.71
2023-01-20T02:17:07.359Z,59.80
2023-01-20T02:19:27.978Z,59.69
2023-01-20T02:21:32.656Z,59.60
2023-01-20T02:24:12.148Z,59.62
2023-01-20T02:26:19.902Z,59.35
2023-01-20T02:29:10.838Z,59.47
2023-01-20T02:31:34.253Z,60.04
2023-01-20T02:33:46.320Z,59.68
2023-01-20T02:36:10.270Z,59.88
2023-01-20T02:38:24.415Z,59.76
2023-01-20T02:40:32.405Z,59.61
2023-01-20T02:42:42.694Z,59.67
2023-01-20T02:44:50.954Z,59.67
2023-01-20T02:47:09.785Z,59.54
2023-01-20T02:49:25.383Z,59.74
2023-01-20T02:51:44.268Z,60.08
2023-01-20T02:53:58.970Z,60.19
2023-01-20T02:56:01.348Z,60.32
2023-01-20T02:58:11.284Z,60.27
2023-01-20T03:00:20.627Z,60.31
2023-01-20T03:02:25.777Z,60.17
2023-01-20T03:04:32.011Z,60.38
2023-01-20T03:06:38.542Z,60.15
2023-01-20T03:08:41.691Z,60.08
2023-01-20T03:10:46.478Z,60.38
2023-01-20T03:12:57.783Z,60.79
2023-01-20T03:14:59.631Z,60.54
2023-01-20T03:17:03.049Z,60.66
2023-01-20T03:19:05.085Z,60.58
2023-01-20T03:21:09.362Z,60.14
2023-01-20T03:23:11.918Z,60.28
2023-01-20T03:25:15.261Z,60.57
2023-01-20T03:27:17.849Z,60.99
2023-01-20T03:29:19.891Z,60.81
2023-01-20T03:31:26.639Z,60.71
2023-01-20T03:33:28.931Z,61.13
2023-01-20T03:35:32.293Z,60.98
2023-01-20T03:37:34.669Z,61.15
2023-01-20T03:39:40.056Z,60.85
2023-01-20T03:42:16.563Z,60.92
2023-01-20T03:44:27.906Z,60.84
2023-01-20T03:46:40.339Z,60.67
2023-01-20T03:48:50.131Z,61.55
2023-01-20T03:51:13.872Z,61.21
2023-01-20T03:53:30.486Z,60.94
2023-01-20T03:55:43.145Z,61.06
2023-01-20T03:58:12.903Z,61.01
2023-01-20T04:00:17.004Z,60.96
2023-01-20T04:02:20.981Z,61.13
2023-01-20T04:04:23.395Z,60.98
2023-01-20T04:06:28.243Z,61.30
2023-01-20T04:08:35.144Z,60.99
2023-01-20T04:10:55.559Z,60.57
2023-01-20T04:12:57.766Z,60.93
2023-01-20T04:15:01.263Z,60.74
2023-01-20T04:17:05.035Z,60.86
2023-01-20T04:19:09.512Z,60.83
2023-01-20T04:21:16.630Z,60.87
2023-01-20T04:23:29.031Z,61.11
2023-01-20T04:25:32.688Z,60.60
2023-01-20T04:27:34.723Z,60.53
2023-01-20T04:29:36.758Z,60.37
2023-01-20T04:31:38.826Z,60.88
2023-01-20T04:33:41.724Z,60.78
2023-01-20T04:35:43.839Z,61.11
2023-01-20T04:37:46.328Z,60.84
2023-01-20T04:39:48.231Z,61.04
2023-01-20T04:41:50.462Z,60.82
2023-01-20T04:43:55.437Z,61.09
2023-01-20T04:45:57.577Z,61.00
2023-01-20T04:47:59.776Z,60.82
2023-01-20T04:50:02.004Z,61.07
2023-01-20T04:52:04.356Z,61.02
2023-01-20T04:54:07.077Z,61.00
2023-01-20T04:56:13.698Z,61.07
2023-01-20T04:58:15.832Z,61.38
2023-01-20T05:00:20.215Z,61.37
2023-01-20T05:02:22.342Z,61.26
2023-01-20T05:04:25.556Z,61.57
2023-01-20T05:06:28.015Z,61.43
2023-01-20T05:08:30.243Z,61.28
2023-01-20T05:10:33.596Z,61.56
2023-01-20T05:12:36.609Z,61.62
2023-01-20T05:14:38.715Z,61.87
2023-01-20T05:16:40.750Z,61.98
2023-01-20T05:18:42.992Z,61.77
2023-01-20T05:20:46.705Z,61.56
2023-01-20T05:22:48.658Z,61.99
2023-01-20T05:24:50.674Z,62.35
2023-01-20T05:26:52.730Z,62.07
2023-01-20T05:28:54.886Z,62.00
2023-01-20T05:30:57.127Z,62.28
2023-01-20T05:32:59.293Z,62.59
2023-01-20T05:35:01.546Z,62.37
2023-01-20T05:37:06.429Z,62.98
2023-01-20T05:39:08.568Z,62.54
2023-01-20T05:41:11.059Z,62.40
2023-01-20T05:43:13.505Z,62.95
2023-01-20T05:45:16.063Z,62.70
2023-01-20T05:47:18.475Z,62.55
2023-01-20T05:49:20.613Z,62.21
2023-01-20T05:51:22.755Z,63.07
2023-01-20T05:53:25.099Z,63.23
2023-01-20T05:55:27.204Z,63.05
2023-01-20T05:57:29.288Z,62.96
2023-01-20T05:59:31.800Z,63.09
2023-01-20T06:01:34.089Z,63.36
2023-01-20T06:03:36.426Z,63.22
2023-01-20T06:05:39.180Z,63.00
2023-01-20T06:07:41.318Z,63.29
2023-01-20T06:09:43.624Z,63.30
2023-01-20T06:11:45.595Z,63.07
2023-01-20T06:13:48.931Z,63.95
2023-01-20T06:15:55.020Z,63.60
2023-01-20T06:17:56.981Z,63.17
2023-01-20T06:20:00.351Z,63.55
2023-01-20T06:22:03.142Z,63.48
2023-01-20T06:24:05.678Z,64.46
2023-01-20T06:26:11.486Z,63.63
2023-01-20T06:28:13.767Z,64.26
2023-01-20T06:30:16.419Z,64.73
2023-01-20T06:32:18.578Z,65.06
2023-01-20T06:34:20.578Z,64.30
2023-01-20T06:36:24.522Z,64.26
2023-01-20T06:38:29.483Z,64.42
2023-01-20T06:40:31.708Z,64.50
2023-01-20T06:42:33.896Z,64.27
2023-01-20T06:44:36.235Z,64.37
2023-01-20T06:46:38.208Z,64.58
2023-01-20T06:48:41.063Z,64.48
2023-01-20T06:50:43.130Z,63.97
2023-01-20T06:52:45.495Z,64.71
2023-01-20T06:54:47.354Z,64.08
2023-01-20T06:56:49.292Z,64.24
2023-01-20T06:58:51.653Z,64.09
2023-01-20T07:00:55.260Z,64.22
2023-01-20T07:02:57.236Z,64.33
2023-01-20T07:05:00.259Z,64.27
2023-01-20T07:07:02.141Z,64.08
2023-01-20T07:09:06.878Z,64.06
2023-01-20T07:11:08.827Z,63.93
2023-01-20T07:13:11.103Z,64.36
2023-01-20T07:15:13.226Z,64.58
2023-01-20T07:17:15.655Z,64.50
2023-01-20T07:19:17.687Z,64.92
2023-01-20T07:21:20.459Z,64.78
2023-01-20T07:23:23.497Z,64.41
2023-01-20T07:25:25.686Z,64.88
2023-01-20T07:27:27.669Z,64.63
2023-01-20T07:29:29.806Z,64.25
2023-01-20T07:31:31.814Z,64.18
2023-01-20T07:33:35.069Z,64.63
2023-01-20T07:35:37.189Z,64.92
2023-01-20T07:38:06.159Z,64.74
2023-01-20T07:40:09.045Z,64.30
2023-01-20T07:42:11.046Z,64.42
2023-01-20T07:44:12.935Z,64.60
2023-01-20T07:46:15.709Z,64.46
2023-01-20T07:48:17.671Z,64.24
2023-01-20T07:50:19.656Z,64.37
2023-01-20T07:52:21.654Z,64.75
2023-01-20T07:54:26.381Z,64.50
2023-01-20T07:56:29.785Z,65.08
2023-01-20T07:58:32.838Z,64.67
2023-01-20T08:00:35.037Z,64.86
2023-01-20T08:02:38.639Z,65.15
2023-01-20T08:04:40.882Z,65.11
2023-01-20T08:06:43.053Z,64.80
2023-01-20T08:08:45.852Z,64.78
2023-01-20T08:10:54.255Z,65.08
2023-01-20T08:12:59.152Z,65.08
2023-01-20T08:15:01.106Z,64.99
2023-01-20T08:17:03.064Z,64.70
2023-01-20T08:19:05.090Z,64.39
2023-01-20T08:21:08.942Z,64.93
2023-01-20T08:23:11.073Z,65.19
2023-01-20T08:25:13.729Z,65.27
2023-01-20T08:27:16.300Z,64.62
2023-01-20T08:29:18.429Z,64.78
2023-01-20T08:31:26.117Z,64.67
2023-01-20T08:33:28.503Z,64.54
2023-01-20T08:35:30.720Z,64.42
2023-01-20T08:37:32.901Z,64.21
2023-01-20T08:39:34.952Z,64.69
2023-01-20T08:41:38.702Z,64.93
2023-01-20T08:43:41.182Z,64.79
2023-01-20T08:45:43.990Z,64.56
2023-01-20T08:47:46.632Z,64.67
2023-01-20T08:49:48.603Z,64.48
2023-01-20T08:51:50.706Z,64.54
2023-01-20T08:53:55.690Z,64.50
2023-01-20T08:56:00.201Z,64.75
2023-01-20T08:58:02.261Z,65.04
2023-01-20T09:00:06.403Z,64.75
2023-01-20T09:02:10.887Z,64.57
2023-01-20T09:04:13.199Z,64.39
2023-01-20T09:06:15.843Z,64.10
2023-01-20T09:08:18.749Z,64.13
2023-01-20T09:10:21.010Z,64.15
2023-01-20T09:12:23.136Z,64.45
2023-01-20T09:14:25.552Z,64.44
2023-01-20T09:16:30.655Z,64.34
2023-01-20T09:18:34.151Z,64.38
2023-01-20T09:20:37.475Z,64.29
2023-01-20T09:22:40.604Z,64.88
2023-01-20T09:24:42.820Z,64.33
2023-01-20T09:26:45.585Z,64.67
2023-01-20T09:28:48.122Z,64.49
2023-01-20T09:30:50.364Z,64.88
2023-01-20T09:32:55.431Z,64.19
2023-01-20T09:34:58.053Z,64.28
2023-01-20T09:37:20.532Z,64.30
2023-01-20T09:39:41.183Z,64.86
2023-01-20T09:42:07.820Z,64.10
2023-01-20T09:44:12.507Z,64.33
2023-01-20T09:46:31.010Z,64.54
2023-01-20T09:49:19.064Z,64.52
2023-01-20T09:51:49.851Z,64.28
2023-01-20T09:54:17.127Z,64.21
2023-01-20T09:56:22.681Z,64.70
2023-01-20T09:59:05.255Z,64.80
2023-01-20T10:01:20.102Z,64.61
2023-01-20T10:03:37.508Z,64.21
2023-01-20T10:05:40.746Z,64.24
2023-01-20T10:07:51.648Z,64.41
2023-01-20T10:10:04.918Z,64.86
2023-01-20T10:12:25.063Z,64.88
2023-01-20T10:14:40.006Z,64.33
2023-01-20T10:17:18.152Z,64.99
2023-01-20T10:19:29.521Z,64.73
2023-01-20T10:21:48.710Z,64.65
2023-01-20T10:24:18.287Z,64.57
2023-01-20T10:26:55.765Z,64.58
2023-01-20T10:33:02.582Z,65.16
2023-01-20T10:35:18.448Z,65.61
2023-01-20T10:37:23.217Z,65.16
2023-01-20T10:40:02.073Z,65.45
2023-01-20T10:42:10.232Z,65.27
2023-01-20T10:44:14.748Z,65.26
2023-01-20T10:46:54.950Z,65.21
2023-01-20T10:49:27.825Z,65.35
2023-01-20T10:51:38.791Z,64.98
2023-01-20T10:53:54.196Z,64.63
2023-01-20T10:56:04.322Z,64.93
2023-01-20T10:58:12.297Z,64.87
2023-01-20T11:00:22.779Z,64.46
2023-01-20T11:02:31.617Z,64.93
2023-01-20T11:04:36.224Z,64.94
2023-01-20T11:06:39.476Z,64.67
2023-01-20T11:08:44.348Z,64.97
2023-01-20T11:10:50.002Z,65.13
2023-01-20T11:12:55.670Z,64.36
2023-01-20T11:15:00.596Z,64.48
2023-01-20T11:17:07.851Z,64.93
2023-01-20T11:19:10.236Z,64.92
2023-01-20T11:21:13.849Z,65.23
2023-01-20T11:23:38.438Z,65.31
2023-01-20T11:25:40.739Z,64.88
2023-01-20T11:27:46.851Z,65.01
2023-01-20T11:29:53.934Z,65.39
2023-01-20T11:31:59.262Z,65.52
2023-01-20T11:34:18.427Z,64.82
2023-01-20T11:36:21.417Z,64.74
2023-01-20T11:38:26.002Z,64.22
2023-01-20T11:40:29.356Z,64.17
2023-01-20T11:46:34.596Z,64.52
2023-01-20T11:48:36.921Z,64.95
2023-01-20T11:50:57.722Z,64.80
2023-01-20T11:53:33.120Z,64.96
2023-01-20T11:55:47.161Z,64.53
2023-01-20T11:57:56.171Z,64.96
2023-01-20T11:59:58.849Z,64.59
2023-01-20T12:02:09.848Z,64.84
2023-01-20T12:04:39.387Z,64.24
2023-01-20T12:06:58.721Z,65.19
2023-01-20T12:09:06.323Z,64.95
2023-01-20T12:11:11.450Z,64.94
2023-01-20T12:13:19.116Z,64.85
2023-01-20T12:15:29.486Z,64.27
2023-01-20T12:17:42.475Z,64.26
2023-01-20T12:20:14.989Z,65.07
2023-01-20T12:22:49.471Z,65.29
2023-01-20T12:25:08.791Z,64.93
2023-01-20T12:27:21.158Z,65.14
2023-01-20T12:29:31.063Z,64.76
2023-01-20T12:31:34.000Z,64.74
2023-01-20T12:33:40.629Z,64.93
2023-01-20T12:36:01.974Z,64.26
2023-01-20T12:38:08.913Z,64.39
2023-01-20T12:40:19.627Z,64.22
2023-01-20T12:43:02.255Z,64.34
2023-01-20T12:45:15.723Z,63.95
2023-01-20T12:47:29.814Z,64.23
2023-01-20T12:49:48.414Z,63.85
2023-01-20T12:52:06.731Z,64.08
2023-01-20T12:54:23.746Z,63.93
2023-01-20T12:56:55.200Z,64.07
2023-01-20T12:59:36.992Z,64.36
2023-01-20T13:01:58.507Z,64.24
2023-01-20T13:04:38.010Z,64.40
2023-01-20T13:06:52.404Z,64.40
2023-01-20T13:09:24.744Z,64.62
2023-01-20T13:11:54.585Z,64.57
2023-01-20T13:14:07.966Z,64.79
2023-01-20T13:16:31.936Z,64.74
2023-01-20T13:18:45.983Z,64.88
2023-01-20T13:20:49.072Z,64.89
2023-01-20T13:22:52.305Z,64.83
2023-01-20T13:24:56.707Z,65.20
2023-01-20T13:27:00.631Z,65.26
2023-01-20T13:29:03.163Z,65.11
2023-01-20T13:31:32.512Z,65.80
2023-01-20T13:33:40.171Z,65.56
2023-01-20T13:35:50.167Z,65.95
2023-01-20T13:37:58.167Z,66.03
2023-01-20T13:40:00.845Z,66.13
2023-01-20T13:42:32.103Z,65.89
2023-01-20T13:44:41.470Z,65.95
2023-01-20T13:46:45.588Z,65.88
2023-01-20T13:49:28.547Z,66.14
2023-01-20T13:51:36.534Z,66.43
2023-01-20T13:53:38.649Z,66.19
2023-01-20T13:55:46.018Z,66.13
2023-01-20T13:57:48.254Z,65.64
2023-01-20T13:59:50.963Z,65.97
2023-01-20T14:01:54.405Z,66.17
2023-01-20T14:04:06.861Z,66.17
2023-01-20T14:06:14.744Z,65.95
2023-01-20T14:08:21.299Z,65.82
2023-01-20T14:10:23.871Z,66.04
2023-01-20T14:12:26.763Z,65.85
2023-01-20T14:14:28.816Z,65.79
2023-01-20T14:16:33.919Z,66.13
2023-01-20T14:18:36.999Z,65.92
2023-01-20T14:20:41.230Z,65.92
2023-01-20T14:22:44.923Z,66.07
2023-01-20T14:24:48.907Z,66.22
2023-01-20T14:26:51.212Z,65.97
2023-01-20T14:28:58.977Z,66.58
2023-01-20T14:31:20.305Z,66.61
2023-01-20T14:33:24.603Z,66.28
2023-01-20T14:35:33.871Z,66.70
2023-01-20T14:37:38.315Z,66.08
2023-01-20T14:39:43.868Z,66.19
2023-01-20T14:41:49.487Z,66.46
2023-01-20T14:43:51.765Z,66.36
2023-01-20T14:45:54.075Z,66.15
2023-01-20T14:47:59.173Z,66.11
2023-01-20T14:50:02.402Z,66.17
2023-01-20T14:52:05.478Z,65.92
2023-01-20T14:54:35.293Z,66.04
2023-01-20T14:56:37.679Z,65.61
2023-01-20T14:58:49.171Z,65.88
2023-01-20T15:00:59.041Z,65.89
2023-01-20T15:03:19.029Z,65.90
2023-01-20T15:05:27.929Z,65.81
2023-01-20T15:07:30.385Z,66.19
2023-01-20T15:09:35.332Z,66.54
2023-01-20T15:11:37.649Z,66.57
2023-01-20T15:13:41.411Z,66.62
2023-01-20T15:15:43.781Z,66.40
2023-01-20T15:18:23.238Z,66.62
2023-01-20T15:20:33.805Z,66.88
2023-01-20T15:22:35.783Z,66.90
2023-01-20T15:24:38.413Z,66.90
2023-01-20T15:26:40.499Z,66.54
2023-01-20T15:28:44.463Z,66.91
2023-01-20T15:30:47.849Z,66.62
2023-01-20T15:32:51.876Z,66.43
2023-01-20T15:34:53.821Z,66.58
2023-01-20T15:36:56.972Z,66.33
2023-01-20T15:38:59.302Z,66.86
2023-01-20T15:41:01.600Z,67.48
2023-01-20T15:43:03.698Z,66.61
2023-01-20T15:45:06.153Z,66.68
2023-01-20T15:47:20.815Z,66.94
2023-01-20T15:49:22.985Z,67.49
2023-01-20T15:51:25.411Z,67.27
2023-01-20T15:53:30.157Z,67.09
2023-01-20T15:55:34.327Z,66.93
2023-01-20T15:57:36.633Z,67.13
2023-01-20T15:59:38.684Z,67.00
2023-01-20T16:01:40.691Z,67.07
2023-01-20T16:03:42.894Z,67.12
2023-01-20T16:05:45.019Z,66.92
2023-01-20T16:07:49.645Z,66.80
2023-01-20T16:09:52.190Z,66.67
2023-01-20T16:11:54.633Z,67.28
2023-01-20T16:13:58.050Z,67.15
2023-01-20T16:16:01.588Z,67.43
2023-01-20T16:18:03.885Z,67.16
2023-01-20T16:20:17.035Z,66.80
2023-01-20T16:22:19.271Z,66.54
2023-01-20T16:24:21.460Z,66.31
2023-01-20T16:26:29.182Z,66.53
2023-01-20T16:28:31.206Z,66.28
2023-01-20T16:30:33.255Z,65.76
2023-01-20T16:32:35.303Z,66.36
2023-01-20T16:34:37.561Z,66.14
2023-01-20T16:36:39.681Z,66.53
2023-01-20T16:38:42.101Z,66.69
2023-01-20T16:40:58.795Z,66.45
2023-01-20T16:43:03.317Z,66.12
2023-01-20T16:45:06.519Z,66.24
2023-01-20T16:47:08.725Z,65.86
2023-01-20T16:49:10.955Z,65.61
2023-01-20T16:51:19.057Z,65.58
2023-01-20T16:53:21.091Z,65.69
2023-01-20T16:55:24.144Z,65.32
2023-01-20T16:57:26.391Z,64.84
2023-01-20T16:59:28.558Z,64.61
2023-01-20T17:01:30.853Z,64.32
2023-01-20T17:03:33.296Z,64.70
2023-01-20T17:05:35.528Z,64.45
2023-01-20T17:07:37.796Z,64.13
2023-01-20T17:09:39.975Z,64.51
2023-01-20T17:11:42.215Z,64.43
2023-01-20T17:13:44.703Z,64.34
2023-01-20T17:15:46.764Z,64.04
2023-01-20T17:17:50.127Z,64.13
2023-01-20T17:19:52.496Z,64.32
2023-01-20T17:21:57.464Z,64.73
2023-01-20T17:24:02.779Z,64.50
2023-01-20T17:26:06.578Z,64.28
2023-01-20T17:28:08.622Z,64.61
2023-01-20T17:30:11.367Z,64.68
2023-01-20T17:32:14.222Z,64.55
2023-01-20T17:34:16.309Z,64.24
2023-01-20T17:36:18.830Z,64.50
2023-01-20T17:38:21.004Z,64.41
2023-01-20T17:40:23.545Z,64.72
2023-01-20T17:42:25.778Z,64.33
2023-01-20T17:44:28.069Z,64.26
2023-01-20T17:46:31.157Z,64.35
2023-01-20T17:48:35.891Z,64.52
2023-01-20T17:50:39.179Z,64.56
2023-01-20T17:52:41.524Z,64.57
2023-01-20T17:54:44.110Z,64.52
2023-01-20T17:56:48.106Z,64.87
2023-01-20T17:58:50.754Z,64.54
2023-01-20T18:00:53.144Z,64.38
2023-01-20T18:02:56.405Z,64.77
2023-01-20T18:04:58.556Z,64.26
2023-01-20T18:07:00.347Z,64.30
2023-01-20T18:09:03.062Z,64.79
2023-01-20T18:11:16.642Z,64.50
2023-01-20T18:13:18.656Z,64.33
2023-01-20T18:15:21.454Z,64.30
2023-01-20T18:17:24.105Z,64.06
2023-01-20T18:19:26.280Z,63.97
2023-01-20T18:21:34.776Z,64.26
2023-01-20T18:23:39.153Z,64.18
2023-01-20T18:25:41.518Z,64.05
2023-01-20T18:27:44.007Z,64.48
2023-01-20T18:29:46.103Z,64.52
2023-01-20T18:31:48.188Z,64.38
2023-01-20T18:33:52.193Z,64.84
2023-01-20T18:35:55.686Z,64.73
2023-01-20T18:38:00.917Z,64.47
2023-01-20T18:40:03.736Z,64.52
2023-01-20T18:42:05.988Z,64.40
2023-01-20T18:44:08.883Z,64.77
2023-01-20T18:46:11.165Z,64.57
2023-01-20T18:48:13.265Z,64.30
2023-01-20T18:50:16.697Z,64.21
2023-01-20T18:52:22.059Z,63.92
2023-01-20T18:54:25.957Z,63.84
2023-01-20T18:56:29.979Z,64.29
2023-01-20T18:58:34.356Z,63.51
2023-01-20T19:00:39.736Z,63.66
2023-01-20T19:02:44.060Z,63.15
2023-01-20T19:04:46.132Z,62.61
2023-01-20T19:06:48.316Z,62.55
2023-01-20T19:08:50.713Z,62.76
2023-01-20T19:10:52.857Z,62.76
2023-01-20T19:12:54.957Z,63.09
2023-01-20T19:14:57.443Z,63.11
2023-01-20T19:16:59.669Z,63.55
2023-01-20T19:19:06.486Z,62.71
2023-01-20T19:21:11.527Z,62.53
2023-01-20T19:23:14.208Z,62.63
2023-01-20T19:25:16.432Z,62.95
2023-01-20T19:27:19.375Z,62.45
2023-01-20T19:29:22.180Z,62.80
2023-01-20T19:31:27.305Z,62.86
2023-01-20T19:33:29.351Z,62.87
2023-01-20T19:35:33.631Z,62.14
2023-01-20T19:37:35.609Z,62.41
2023-01-20T19:39:37.796Z,62.55
2023-01-20T19:41:39.735Z,62.40
2023-01-20T19:43:42.699Z,62.39
2023-01-20T19:45:45.971Z,62.35
2023-01-20T19:47:48.191Z,62.54
2023-01-20T19:49:50.232Z,62.38
2023-01-20T19:51:52.281Z,62.18
2023-01-20T19:53:58.333Z,62.43
2023-01-20T19:56:09.531Z,62.11
2023-01-20T19:58:11.659Z,62.51
2023-01-20T20:00:14.373Z,62.08
2023-01-20T20:02:16.618Z,62.00
2023-01-20T20:04:24.275Z,62.21
2023-01-20T20:06:34.800Z,61.97
2023-01-20T20:08:36.921Z,62.04
2023-01-20T20:10:42.829Z,62.26
2023-01-20T20:12:45.456Z,62.63
2023-01-20T20:14:47.439Z,62.50
2023-01-20T20:16:50.782Z,62.32
2023-01-20T20:18:53.912Z,62.28
2023-01-20T20:20:56.305Z,62.65
2023-01-20T20:22:58.522Z,61.92
2023-01-20T20:25:00.434Z,62.18
2023-01-20T20:27:02.531Z,62.35
2023-01-20T20:29:07.298Z,62.22
2023-01-20T20:31:10.024Z,62.23
2023-01-20T20:33:12.726Z,62.47
2023-01-20T20:35:15.113Z,62.11
2023-01-20T20:37:18.937Z,62.41
2023-01-20T20:39:20.952Z,62.30
2023-01-20T20:41:25.822Z,62.58
2023-01-20T20:43:29.282Z,62.25
2023-01-20T20:45:31.624Z,62.47
2023-01-20T20:47:35.459Z,62.66
2023-01-20T20:49:37.373Z,62.49
2023-01-20T20:51:42.165Z,62.75
2023-01-20T20:53:44.613Z,62.31
2023-01-20T20:55:46.707Z,62.62
2023-01-20T20:57:48.777Z,62.65
2023-01-20T20:59:58.874Z,62.62
2023-01-20T21:02:01.941Z,62.44
2023-01-20T21:04:04.403Z,62.75
2023-01-20T21:06:07.222Z,63.17
2023-01-20T21:08:09.309Z,63.24
2023-01-20T21:10:14.060Z,63.20
2023-01-20T21:12:16.582Z,63.50
2023-01-20T21:14:21.371Z,64.14
2023-01-20T21:16:24.430Z,63.77
2023-01-20T21:18:31.384Z,63.96
2023-01-20T21:20:34.022Z,63.32
2023-01-20T21:22:36.411Z,63.92
2023-01-20T21:24:38.425Z,63.73
2023-01-20T21:26:41.285Z,63.69
2023-01-20T21:28:44.583Z,63.62
2023-01-20T21:30:47.087Z,64.01
2023-01-20T21:32:49.428Z,64.29
2023-01-20T21:34:55.390Z,64.09
2023-01-20T21:36:57.418Z,64.27
2023-01-20T21:38:59.659Z,64.68
2023-01-20T21:41:10.062Z,64.93
2023-01-20T21:43:30.936Z,65.69
2023-01-20T21:45:33.029Z,65.14
2023-01-20T21:47:35.244Z,65.67
2023-01-20T21:49:55.677Z,65.50
2023-01-20T21:52:16.617Z,66.09
2023-01-20T21:54:18.981Z,66.23
2023-01-20T21:56:21.434Z,67.10
2023-01-20T21:58:24.403Z,66.44
2023-01-20T22:00:30.260Z,66.52
2023-01-20T22:02:32.641Z,67.27
2023-01-20T22:04:40.438Z,67.01
2023-01-20T22:06:43.173Z,67.51
2023-01-20T22:08:48.232Z,67.31
2023-01-20T22:11:01.923Z,67.26
2023-01-20T22:13:04.021Z,66.70
2023-01-20T22:15:07.112Z,66.18
2023-01-20T22:17:11.349Z,66.05
2023-01-20T22:19:14.077Z,66.00
2023-01-20T22:21:17.227Z,65.68
2023-01-20T22:23:19.334Z,65.67
2023-01-20T22:25:21.300Z,66.18
2023-01-20T22:27:25.480Z,66.47
2023-01-20T22:29:27.971Z,66.22
2023-01-20T22:31:31.366Z,66.47
2023-01-20T22:33:33.777Z,65.96
2023-01-20T22:35:35.892Z,66.25
2023-01-20T22:37:38.099Z,66.10
2023-01-20T22:39:40.151Z,66.08
2023-01-20T22:41:42.680Z,66.31
2023-01-20T22:43:45.179Z,66.12
2023-01-20T22:45:48.502Z,66.31
2023-01-20T22:47:50.812Z,66.50
2023-01-20T22:49:55.351Z,66.70
2023-01-20T22:51:57.771Z,66.69
2023-01-20T22:54:01.248Z,66.82
2023-01-20T22:56:13.680Z,67.44
2023-01-20T22:58:17.131Z,67.22
2023-01-20T23:00:19.530Z,66.78
2023-01-20T23:02:21.964Z,67.20
2023-01-20T23:04:24.264Z,66.82
2023-01-20T23:06:28.211Z,66.69
2023-01-20T23:08:32.133Z,66.60
2023-01-20T23:10:46.464Z,66.58
2023-01-20T23:12:51.112Z,66.68
2023-01-20T23:14:59.229Z,66.27
2023-01-20T23:17:03.448Z,66.37
2023-01-20T23:19:05.929Z,67.31
2023-01-20T23:21:08.328Z,67.03
2023-01-20T23:23:14.294Z,66.80
2023-01-20T23:25:16.821Z,66.45
2023-01-20T23:27:19.276Z,66.53
2023-01-20T23:29:21.653Z,67.03
2023-01-20T23:31:26.057Z,67.51
2023-01-20T23:33:28.502Z,67.34
2023-01-20T23:35:30.617Z,66.98
2023-01-20T23:37:32.604Z,66.53
2023-01-20T23:39:34.638Z,66.44
2023-01-20T23:41:36.746Z,66.27
2023-01-20T23:43:38.977Z,66.19
2023-01-20T23:45:40.958Z,66.57
2023-01-20T23:47:43.362Z,66.49
2023-01-20T23:49:45.387Z,66.11
2023-01-20T23:51:47.747Z,66.16
2023-01-20T23:53:49.743Z,66.51
2023-01-20T23:55:51.764Z,66.37
2023-01-20T23:57:53.771Z,66.58
2023-01-20T23:59:55.913Z,66.19
